Time;durP1;ratioP1;P1;durP2;ratioP2;P2;SDS_P1;SDS_P2;PMS_P1;PMS_P2;Temp;Humidity;BMP_temperature;BMP_pressure;BME280_temperature;BME280_humidity;BME280_pressure;Samples;Min_cycle;Max_cycle;Signal;HPM_P1;HPM_P2
2023/07/25 00:01:16;;;;;;;13.45;7.47;;;;;;;22.89;56.64;64372.75;5123316;28;20231;-79
2023/07/25 00:03:43;;;;;;;9.75;7.30;;;;;;;22.91;57.64;64374.34;5117980;27;20223;-78
2023/07/25 00:06:10;;;;;;;10.73;7.47;;;;;;;22.89;58.39;64372.25;5128861;27;20225;-77
2023/07/25 00:08:37;;;;;;;14.77;7.72;;;;;;;22.90;56.54;64370.69;5126527;28;20210;-78
2023/07/25 00:11:05;;;;;;;8.02;7.05;;;;;;;22.89;58.74;64369.63;5128208;27;20689;-79
2023/07/25 00:13:33;;;;;;;11.95;7.55;;;;;;;22.88;58.89;64371.19;5130996;27;20206;-79
2023/07/25 00:16:00;;;;;;;12.73;7.38;;;;;;;22.83;58.43;64371.69;5121049;28;20253;-79
2023/07/25 00:18:27;;;;;;;9.27;7.30;;;;;;;22.71;59.43;64356.03;5118625;28;20548;-78
2023/07/25 00:20:54;;;;;;;12.80;7.82;;;;;;;22.64;59.63;64351.81;5122885;28;20215;-79
2023/07/25 00:23:21;;;;;;;9.40;7.30;;;;;;;22.61;59.03;64346.06;5130049;28;20252;-80
2023/07/25 00:25:48;;;;;;;11.48;7.63;;;;;;;22.58;59.65;64342.41;5126466;28;20487;-77
2023/07/25 00:28:15;;;;;;;9.07;7.50;;;;;;;22.54;60.58;64336.16;5128530;28;20198;-77
2023/07/25 00:30:43;;;;;;;13.95;8.35;;;;;;;22.46;60.08;64330.38;5130884;28;20217;-78
2023/07/25 00:33:10;;;;;;;12.00;7.30;;;;;;;22.40;61.32;64321.00;5119276;27;20191;-78
2023/07/25 00:35:37;;;;;;;12.20;8.32;;;;;;;22.33;61.06;64309.00;5122774;28;20476;-77
2023/07/25 00:38:05;;;;;;;15.60;8.48;;;;;;;22.21;61.77;64301.63;5121855;27;20282;-78
2023/07/25 00:40:32;;;;;;;14.23;8.35;;;;;;;22.16;61.95;64293.31;5111590;28;20202;-78
2023/07/25 00:43:00;;;;;;;13.05;8.35;;;;;;;22.10;63.24;64292.75;5130813;27;20203;-77
2023/07/25 00:45:27;;;;;;;14.18;9.02;;;;;;;22.13;62.96;64298.47;5120723;28;20395;-80
2023/07/25 00:47:55;;;;;;;16.30;9.88;;;;;;;22.10;62.53;64287.56;5117910;28;20267;-76
2023/07/25 00:50:23;;;;;;;12.70;8.48;;;;;;;22.02;63.18;64278.69;5110400;28;20443;-79
2023/07/25 00:52:50;;;;;;;14.18;8.82;;;;;;;22.04;62.98;64283.88;5127694;28;20218;-76
2023/07/25 00:55:17;;;;;;;13.20;9.50;;;;;;;22.10;63.48;64282.38;5130163;27;20670;-79
2023/07/25 00:57:44;;;;;;;14.68;8.60;;;;;;;22.12;62.98;64294.31;5126696;28;20507;-78
2023/07/25 01:00:13;;;;;;;15.68;8.50;;;;;;;22.12;62.86;64289.66;5119212;28;20199;-78
2023/07/25 01:02:40;;;;;;;15.60;8.88;;;;;;;22.12;63.44;64287.06;5127113;27;20206;-79
2023/07/25 01:05:10;;;;;;;14.55;8.10;;;;;;;22.10;61.67;64287.56;5123241;28;20199;-78
2023/07/25 01:07:38;;;;;;;13.35;7.60;;;;;;;22.18;62.23;64295.38;5123680;27;20241;-78
2023/07/25 01:10:06;;;;;;;13.77;7.93;;;;;;;22.16;61.78;64293.81;5121940;27;20275;-78
2023/07/25 01:12:33;;;;;;;13.13;8.35;;;;;;;22.16;61.87;64296.41;5121612;27;20214;-78
2023/07/25 01:15:00;;;;;;;13.73;8.57;;;;;;;22.12;62.85;64294.84;5125483;28;20217;-79
2023/07/25 01:17:29;;;;;;;16.10;8.23;;;;;;;22.11;62.35;64290.66;5121841;27;20229;-78
2023/07/25 01:19:58;;;;;;;15.98;9.50;;;;;;;22.19;62.61;64299.56;5111512;28;20500;-82
2023/07/25 01:22:27;;;;;;;15.40;8.30;;;;;;;22.13;61.69;64292.75;5114485;28;20234;-80
2023/07/25 01:24:56;;;;;;;12.25;8.10;;;;;;;22.08;62.96;64287.53;5132554;27;20224;-78
2023/07/25 01:27:23;;;;;;;12.57;8.40;;;;;;;22.09;62.11;64286.50;5127291;27;20223;-78
2023/07/25 01:29:50;;;;;;;11.90;8.30;;;;;;;22.11;61.92;64288.06;5126173;28;20234;-78
2023/07/25 01:32:17;;;;;;;12.15;8.07;;;;;;;22.11;62.38;64288.06;5123867;27;20254;-78
2023/07/25 01:34:44;;;;;;;11.20;8.00;;;;;;;22.06;62.68;64285.97;5130673;28;20221;-80
2023/07/25 01:37:12;;;;;;;11.55;7.68;;;;;;;22.13;61.13;64295.88;5114430;28;20234;-81
2023/07/25 01:39:42;;;;;;;18.08;8.77;;;;;;;22.11;61.98;64293.25;5130029;27;20202;-78
2023/07/25 01:42:11;;;;;;;12.43;7.90;;;;;;;22.10;62.26;64287.56;5126494;28;20411;-79
2023/07/25 01:44:39;;;;;;;10.75;7.72;;;;;;;22.12;61.07;64289.13;5127286;28;20264;-78
2023/07/25 01:47:07;;;;;;;12.88;7.97;;;;;;;22.08;60.97;64288.06;5107173;28;20222;-80
2023/07/25 01:49:34;;;;;;;12.63;8.32;;;;;;;22.12;61.33;64299.50;5123793;28;20198;-77
2023/07/25 01:52:02;;;;;;;13.00;8.13;;;;;;;22.11;60.84;64288.06;5117015;28;20229;-78
2023/07/25 01:54:29;;;;;;;11.40;7.20;;;;;;;22.13;61.30;64293.28;5117860;28;20203;-79
2023/07/25 01:56:56;;;;;;;13.65;8.40;;;;;;;22.12;60.16;64291.72;5112906;28;20349;-77
2023/07/25 01:59:25;;;;;;;13.32;7.85;;;;;;;22.09;60.67;64286.50;5124670;28;20199;-78
2023/07/25 02:01:52;;;;;;;9.95;7.78;;;;;;;22.04;60.94;64291.16;5129592;28;20390;-77
2023/07/25 02:04:19;;;;;;;10.63;7.13;;;;;;;22.16;60.76;64295.91;5127108;28;20186;-78
2023/07/25 02:06:46;;;;;;;9.95;7.45;;;;;;;22.07;61.99;64286.50;5111536;28;20219;-77
2023/07/25 02:09:13;;;;;;;10.63;8.02;;;;;;;21.97;61.98;64276.03;5128302;27;20194;-80
2023/07/25 02:11:40;;;;;;;14.98;8.65;;;;;;;22.06;62.11;64285.44;5127373;28;20263;-78
2023/07/25 02:14:07;;;;;;;12.63;7.75;;;;;;;22.06;62.15;64283.38;5125183;28;20190;-77
2023/07/25 02:16:37;;;;;;;11.77;8.75;;;;;;;22.00;62.36;64274.00;5112231;28;20218;-78
2023/07/25 02:19:05;;;;;;;17.98;9.77;;;;;;;22.03;62.96;64279.72;5120272;28;20235;-80
2023/07/25 02:21:32;;;;;;;22.65;9.23;;;;;;;21.98;63.82;64277.63;5109295;28;20224;-77
2023/07/25 02:24:00;;;;;;;17.52;8.52;;;;;;;21.94;64.72;64276.03;5116470;28;20198;-78
2023/07/25 02:26:27;;;;;;;14.77;8.73;;;;;;;21.92;65.18;64273.41;5122568;28;20419;-77
2023/07/25 02:28:55;;;;;;;15.23;8.75;;;;;;;21.82;65.36;64260.34;5123783;28;20484;-77
2023/07/25 02:31:22;;;;;;;17.40;8.75;;;;;;;21.78;65.73;64254.63;5126288;28;20214;-79
2023/07/25 02:33:51;;;;;;;12.90;8.10;;;;;;;21.68;67.03;64246.75;5120447;28;20258;-77
2023/07/25 02:36:18;;;;;;;11.82;8.43;;;;;;;21.63;67.54;64246.72;5116845;28;20260;-78
2023/07/25 02:38:45;;;;;;;11.27;8.38;;;;;;;21.52;68.47;64235.22;5111415;28;20226;-79
2023/07/25 02:41:12;;;;;;;12.90;8.40;;;;;;;21.41;69.05;64218.03;5123956;28;20222;-77
2023/07/25 02:43:40;;;;;;;12.88;8.38;;;;;;;21.31;69.72;64205.50;5116188;28;20194;-78
2023/07/25 02:46:07;;;;;;;11.52;8.55;;;;;;;21.25;70.23;64201.84;5123328;28;20237;-78
2023/07/25 02:48:35;;;;;;;14.60;8.55;;;;;;;21.11;71.45;64186.69;5113107;28;20251;-78
2023/07/25 02:51:04;;;;;;;14.60;8.48;;;;;;;21.07;70.00;64179.94;5127624;28;20218;-78
2023/07/25 02:53:31;;;;;;;13.30;8.40;;;;;;;21.03;69.99;64175.75;5136097;28;20214;-77
2023/07/25 02:55:58;;;;;;;14.65;8.32;;;;;;;20.96;69.70;64174.13;5132126;28;20278;-78
2023/07/25 02:58:25;;;;;;;13.85;9.23;;;;;;;20.95;69.40;64167.38;5120805;27;20276;-79
2023/07/25 03:00:52;;;;;;;14.55;8.90;;;;;;;20.95;69.62;64169.97;5122043;28;20441;-79
2023/07/25 03:03:19;;;;;;;16.05;8.80;;;;;;;21.07;68.72;64185.63;5131602;27;20205;-78
2023/07/25 03:05:46;;;;;;;13.77;8.10;;;;;;;21.04;68.12;64176.78;5119001;27;20221;-78
2023/07/25 03:08:15;;;;;;;15.45;9.38;;;;;;;21.05;68.74;64183.56;5123172;28;20236;-78
2023/07/25 03:10:42;;;;;;;16.25;8.98;;;;;;;21.19;68.43;64195.06;5132181;28;20230;-80
2023/07/25 03:13:09;;;;;;;14.88;8.98;;;;;;;21.12;68.48;64187.75;5127689;28;20197;-78
2023/07/25 03:15:36;;;;;;;12.82;8.10;;;;;;;21.09;69.22;64187.72;5117985;28;20263;-78
2023/07/25 03:18:03;;;;;;;12.13;8.73;;;;;;;21.17;67.80;64190.91;5113669;28;20223;-80
2023/07/25 03:20:30;;;;;;;12.25;8.18;;;;;;;21.20;67.71;64196.09;5124837;28;20218;-77
2023/07/25 03:22:57;;;;;;;12.05;8.00;;;;;;;21.27;67.76;64200.81;5117416;28;20539;-77
2023/07/25 03:25:26;;;;;;;15.20;9.52;;;;;;;21.28;67.92;64204.97;5132819;28;20398;-78
2023/07/25 03:27:53;;;;;;;10.98;8.38;;;;;;;21.29;67.41;64202.91;5109105;28;20253;-79
2023/07/25 03:30:21;;;;;;;12.43;8.52;;;;;;;21.34;66.92;64211.25;5126911;28;20205;-79
2023/07/25 03:32:49;;;;;;;14.85;8.25;;;;;;;21.51;65.04;64231.06;5126487;28;20214;-79
2023/07/25 03:35:16;;;;;;;13.75;8.85;;;;;;;21.47;66.22;64227.41;5115980;28;20226;-78
2023/07/25 03:37:43;;;;;;;13.48;8.60;;;;;;;21.45;66.59;64222.22;5114953;28;20289;-77
2023/07/25 03:40:11;;;;;;;15.35;9.35;;;;;;;21.55;66.53;64230.56;5123183;28;20199;-78
2023/07/25 03:42:40;;;;;;;11.23;8.57;;;;;;;21.62;65.55;64239.97;5125446;28;20222;-79
2023/07/25 03:45:09;;;;;;;15.63;8.52;;;;;;;21.68;65.80;64249.34;5131774;28;20202;-78
2023/07/25 03:47:36;;;;;;;12.13;7.90;;;;;;;21.74;66.19;64255.63;5127726;28;20290;-79
2023/07/25 03:50:04;;;;;;;11.23;9.05;;;;;;;21.81;65.72;64259.31;5125320;28;20210;-78
2023/07/25 03:52:31;;;;;;;16.40;9.50;;;;;;;21.86;65.33;64269.72;5112787;28;20249;-80
2023/07/25 03:54:58;;;;;;;15.05;8.63;;;;;;;21.94;64.62;64272.91;5150819;27;20219;-79
2023/07/25 03:57:25;;;;;;;13.70;8.88;;;;;;;22.00;64.13;64281.78;5124555;27;20215;-77
2023/07/25 03:59:54;;;;;;;12.73;8.98;;;;;;;22.04;65.19;64281.28;5127703;28;20252;-78
2023/07/25 04:02:21;;;;;;;13.80;8.23;;;;;;;22.15;64.11;64294.84;5128354;28;20210;-78
2023/07/25 04:04:48;;;;;;;13.93;8.30;;;;;;;22.24;63.72;64301.66;5129275;28;20270;-79
2023/07/25 04:07:15;;;;;;;11.43;8.05;;;;;;;22.35;65.21;64315.75;5128022;28;20231;-77
2023/07/25 04:09:43;;;;;;;13.27;8.25;;;;;;;22.40;65.78;64321.50;5128395;27;20199;-78
2023/07/25 04:12:10;;;;;;;13.07;8.32;;;;;;;22.47;64.96;64331.41;5126222;27;20221;-79
2023/07/25 04:14:37;;;;;;;14.32;8.60;;;;;;;22.47;65.54;64330.88;5126483;28;20191;-79
2023/07/25 04:17:06;;;;;;;11.98;8.18;;;;;;;22.63;67.99;64339.84;5125919;28;20215;-78
2023/07/25 04:19:33;;;;;;;14.23;9.70;;;;;;;22.63;69.35;64340.38;5127004;27;20242;-77
2023/07/25 04:22:01;;;;;;;13.15;8.77;;;;;;;22.70;68.34;64349.78;5123076;28;20218;-78
2023/07/25 04:24:29;;;;;;;13.05;8.35;;;;;;;22.77;68.81;64352.44;5123565;28;20195;-78
2023/07/25 04:26:56;;;;;;;14.18;8.13;;;;;;;22.81;67.63;64364.38;5124823;27;20261;-77
2023/07/25 04:29:23;;;;;;;17.90;9.52;;;;;;;22.78;68.26;64358.66;5123364;28;20195;-78
2023/07/25 04:31:50;;;;;;;16.10;8.70;;;;;;;22.78;66.09;64360.72;5122217;27;20236;-76
2023/07/25 04:34:18;;;;;;;9.65;8.30;;;;;;;22.77;68.64;64362.28;5122749;27;20199;-77
2023/07/25 04:36:46;;;;;;;17.70;9.23;;;;;;;22.87;68.59;64370.66;5125987;28;20214;-78
2023/07/25 04:39:13;;;;;;;13.27;8.07;;;;;;;22.98;68.21;64381.66;5130229;28;20281;-78
2023/07/25 04:41:40;;;;;;;10.82;8.35;;;;;;;22.92;71.56;64373.28;5129489;28;20214;-78
2023/07/25 04:44:08;;;;;;;13.23;9.05;;;;;;;22.88;71.60;64374.31;5131321;28;20199;-78
2023/07/25 04:46:35;;;;;;;10.68;8.15;;;;;;;22.88;72.61;64368.59;5126964;28;20355;-79
2023/07/25 04:49:02;;;;;;;13.20;9.15;;;;;;;23.07;71.48;64390.53;5129822;28;20213;-79
2023/07/25 04:51:31;;;;;;;14.68;9.60;;;;;;;23.10;68.53;64393.69;5128479;28;20286;-78
2023/07/25 04:53:58;;;;;;;13.60;9.40;;;;;;;23.21;66.87;64408.28;5127246;28;20427;-80
2023/07/25 04:56:26;;;;;;;17.80;10.50;;;;;;;23.26;65.08;64410.94;5116800;28;20282;-78
2023/07/25 04:58:53;;;;;;;17.42;9.35;;;;;;;23.05;66.97;64383.78;5131832;28;20236;-79
2023/07/25 05:01:20;;;;;;;15.57;9.90;;;;;;;23.20;65.99;64404.66;5114143;28;20532;-80
2023/07/25 05:03:47;;;;;;;17.70;9.88;;;;;;;23.07;67.12;64385.88;5121476;27;20200;-82
2023/07/25 05:06:14;;;;;;;13.23;9.52;;;;;;;23.26;67.28;64410.94;5131294;28;20234;-80
2023/07/25 05:08:45;;;;;;;20.08;10.02;;;;;;;23.39;66.85;64424.56;5124213;28;20215;-82
2023/07/25 05:11:13;;;;;;;16.13;9.82;;;;;;;23.44;65.74;64432.38;5121803;28;20224;-81
2023/07/25 05:13:40;;;;;;;24.25;10.25;;;;;;;23.42;64.40;64427.69;5123305;28;20207;-81
2023/07/25 05:16:07;;;;;;;19.73;10.15;;;;;;;23.32;64.86;64416.69;5133045;28;20218;-82
2023/07/25 05:18:38;;;;;;;17.08;10.00;;;;;;;23.33;65.68;64423.47;5125009;28;20230;-82
2023/07/25 05:21:05;;;;;;;15.60;10.05;;;;;;;23.49;65.36;64437.63;5130059;28;20270;-82
2023/07/25 05:23:32;;;;;;;21.13;10.57;;;;;;;23.54;67.09;64437.66;5117664;28;20215;-82
2023/07/25 05:26:01;;;;;;;17.55;9.52;;;;;;;23.74;65.22;64460.66;5133198;28;20218;-82
2023/07/25 05:28:28;;;;;;;19.05;10.75;;;;;;;23.51;65.89;64437.13;5131635;28;20488;-81
2023/07/25 05:30:55;;;;;;;14.60;9.23;;;;;;;23.44;66.35;64427.19;5122948;28;20233;-82
2023/07/25 05:33:23;;;;;;;16.02;10.27;;;;;;;23.47;66.33;64432.91;5119541;28;20195;-81
2023/07/25 05:35:50;;;;;;;18.60;10.77;;;;;;;23.37;66.82;64419.84;5129131;28;20214;-80
2023/07/25 05:38:17;;;;;;;17.90;10.55;;;;;;;23.60;65.93;64446.00;5121673;28;20233;-81
2023/07/25 05:40:45;;;;;;;13.75;9.52;;;;;;;23.49;65.86;64437.63;5120016;28;20203;-81
2023/07/25 05:43:15;;;;;;;15.38;9.63;;;;;;;23.59;66.10;64444.97;5134488;28;20206;-81
2023/07/25 05:45:41;;;;;;;24.65;12.05;;;;;;;23.43;67.24;64423.56;5119068;28;20190;-81
2023/07/25 05:48:09;;;;;;;18.60;11.02;;;;;;;23.73;65.89;64457.00;5118830;28;20208;-80
2023/07/25 05:50:37;;;;;;;18.60;10.63;;;;;;;23.91;65.67;64475.84;5126066;28;20214;-81
2023/07/25 05:53:05;;;;;;;23.05;10.57;;;;;;;24.09;63.16;64497.28;5128378;28;20230;-81
2023/07/25 05:55:32;;;;;;;22.27;10.15;;;;;;;24.22;63.51;64510.38;5126213;28;20193;-81
2023/07/25 05:58:01;;;;;;;22.38;10.48;;;;;;;24.26;61.98;64517.72;5119477;28;20202;-85
2023/07/25 06:00:30;;;;;;;28.73;12.52;;;;;;;24.68;60.86;64555.94;5120632;28;20203;-83
2023/07/25 06:02:57;;;;;;;25.25;10.48;;;;;;;24.88;61.18;64576.91;5126342;28;20385;-81
2023/07/25 06:05:25;;;;;;;27.77;10.48;;;;;;;25.10;60.96;64603.09;5114243;28;20203;-80
2023/07/25 06:07:52;;;;;;;25.98;9.25;;;;;;;25.09;60.90;64601.53;5126396;28;20386;-81
2023/07/25 06:10:19;;;;;;;22.17;10.90;;;;;;;24.89;62.26;64580.56;5110616;28;20202;-81
2023/07/25 06:12:49;;;;;;;20.88;10.05;;;;;;;24.87;62.21;64579.00;5116184;28;20216;-82
2023/07/25 06:15:16;;;;;;;16.85;10.65;;;;;;;25.10;60.67;64603.09;5131775;28;20195;-81
2023/07/25 06:17:44;;;;;;;19.30;9.45;;;;;;;25.13;61.11;64605.19;5119818;28;20222;-81
2023/07/25 06:20:13;;;;;;;18.23;9.57;;;;;;;25.22;59.85;64617.75;5124922;28;20231;-82
2023/07/25 06:22:41;;;;;;;16.67;10.13;;;;;;;25.46;60.60;64639.78;5115266;28;20216;-81
2023/07/25 06:25:12;;;;;;;13.68;10.05;;;;;;;25.23;61.86;64615.66;5109659;28;20203;-82
2023/07/25 06:27:40;;;;;;;17.95;9.45;;;;;;;25.54;61.15;64646.06;5112959;28;20219;-82
2023/07/25 06:30:08;;;;;;;13.05;8.93;;;;;;;25.56;62.64;64656.00;5116020;28;20210;-82
2023/07/25 06:32:37;;;;;;;18.40;9.45;;;;;;;25.81;61.35;64676.97;5119209;28;20219;-81
2023/07/25 06:35:07;;;;;;;18.08;9.40;;;;;;;26.04;60.72;64695.88;5133908;28;20254;-82
2023/07/25 06:37:35;;;;;;;18.25;10.20;;;;;;;26.20;59.32;64717.88;5133285;28;20221;-81
2023/07/25 06:40:05;;;;;;;16.23;9.88;;;;;;;26.33;58.85;64730.47;5117315;28;20266;-84
2023/07/25 06:42:32;;;;;;;22.08;9.68;;;;;;;26.45;59.39;64748.78;5121520;28;20249;-81
2023/07/25 06:44:59;;;;;;;17.65;9.38;;;;;;;26.41;59.40;64736.22;5112964;28;20199;-81
2023/07/25 06:47:27;;;;;;;17.70;9.55;;;;;;;26.65;58.11;64761.91;5133387;28;20259;-82
2023/07/25 06:49:54;;;;;;;13.52;8.95;;;;;;;26.46;58.40;64747.22;5120607;28;20199;-81
2023/07/25 06:52:22;;;;;;;15.05;10.45;;;;;;;26.41;56.74;64744.59;5132873;28;20234;-82
2023/07/25 06:54:49;;;;;;;12.73;9.68;;;;;;;26.41;56.85;64741.44;5133255;28;20216;-81
2023/07/25 06:57:16;;;;;;;13.48;9.40;;;;;;;26.50;55.84;64748.28;5113459;28;20223;-81
2023/07/25 06:59:43;;;;;;;16.42;10.35;;;;;;;26.47;54.82;64747.75;5122784;28;20226;-81
2023/07/25 07:02:10;;;;;;;12.93;9.15;;;;;;;26.40;55.14;64738.34;5132335;28;20254;-82
2023/07/25 07:04:38;;;;;;;18.92;10.45;;;;;;;26.55;54.27;64759.28;5126141;28;20263;-81
2023/07/25 07:07:06;;;;;;;18.95;10.02;;;;;;;26.54;53.37;64753.00;5109628;28;20387;-81
2023/07/25 07:09:35;;;;;;;15.35;9.15;;;;;;;26.49;53.88;64744.63;5117958;28;20473;-82
2023/07/25 07:12:03;;;;;;;14.23;9.65;;;;;;;26.71;54.06;64770.34;5118116;28;20214;-81
2023/07/25 07:14:31;;;;;;;21.60;10.77;;;;;;;26.79;52.90;64781.31;5115206;28;20270;-82
2023/07/25 07:17:00;;;;;;;18.90;10.68;;;;;;;27.00;52.78;64806.50;5122259;28;20312;-82
2023/07/25 07:19:28;;;;;;;18.63;10.45;;;;;;;27.07;53.49;64808.09;5123592;28;20249;-82
2023/07/25 07:21:55;;;;;;;19.02;10.10;;;;;;;27.11;53.18;64809.69;5109194;28;20225;-80
2023/07/25 07:24:26;;;;;;;20.13;10.57;;;;;;;27.11;52.95;64810.19;5130398;28;20205;-80
2023/07/25 07:26:55;;;;;;;16.52;10.05;;;;;;;27.28;53.13;64833.25;5133704;28;20210;-82
2023/07/25 07:29:22;;;;;;;18.73;10.75;;;;;;;27.11;52.23;64812.28;5130953;28;20211;-83
2023/07/25 07:31:50;;;;;;;25.13;10.30;;;;;;;27.24;52.44;64826.44;5133784;28;20222;-81
2023/07/25 07:34:19;;;;;;;16.55;10.65;;;;;;;27.15;51.02;64816.47;5128984;28;20218;-81
2023/07/25 07:36:46;;;;;;;22.15;10.35;;;;;;;27.25;51.06;64829.56;5120632;28;20229;-82
2023/07/25 07:39:14;;;;;;;18.42;10.10;;;;;;;27.17;50.52;64821.72;5125670;28;20241;-81
2023/07/25 07:41:41;;;;;;;20.65;10.52;;;;;;;27.04;51.07;64810.69;5124020;28;20398;-82
2023/07/25 07:44:10;;;;;;;18.73;10.52;;;;;;;27.20;50.42;64824.34;5121577;28;20207;-81
2023/07/25 07:46:37;;;;;;;22.88;10.38;;;;;;;27.28;50.07;64830.13;5114877;28;20222;-81
2023/07/25 07:49:05;;;;;;;20.00;10.27;;;;;;;27.65;48.79;64863.72;5118964;28;20206;-82
2023/07/25 07:51:32;;;;;;;27.70;10.82;;;;;;;27.74;48.79;64881.03;5132859;28;20234;-80
2023/07/25 07:53:59;;;;;;;15.80;10.20;;;;;;;27.77;48.18;64881.03;5116440;28;20195;-80
2023/07/25 07:56:27;;;;;;;24.42;10.73;;;;;;;27.91;48.11;64893.13;5117151;28;20223;-82
2023/07/25 07:58:54;;;;;;;17.15;10.13;;;;;;;28.07;47.29;64910.47;5115084;28;20279;-81
2023/07/25 08:01:23;;;;;;;26.15;11.40;;;;;;;28.23;46.90;64926.72;5133957;28;20223;-82
2023/07/25 08:03:51;;;;;;;17.65;10.27;;;;;;;28.50;46.49;64957.69;5134449;28;20241;-82
2023/07/25 08:06:18;;;;;;;18.65;9.95;;;;;;;28.75;45.98;64983.44;5119371;28;20267;-82
2023/07/25 08:08:48;;;;;;;18.73;10.63;;;;;;;28.81;44.93;64989.75;5123647;28;20200;-81
2023/07/25 08:11:15;;;;;;;19.02;11.25;;;;;;;28.99;45.71;65008.66;5126670;28;20210;-82
2023/07/25 08:13:42;;;;;;;24.00;10.95;;;;;;;29.16;44.45;65029.69;5133454;28;20206;-83
2023/07/25 08:16:09;;;;;;;22.20;11.93;;;;;;;29.35;44.23;65043.88;5112389;28;20211;-80
2023/07/25 08:18:38;;;;;;;15.70;11.05;;;;;;;28.89;43.84;65000.78;5112902;28;20199;-81
2023/07/25 08:21:06;;;;;;;21.23;11.75;;;;;;;28.94;44.31;65009.16;5129982;28;20222;-82
2023/07/25 08:23:33;;;;;;;23.67;11.43;;;;;;;28.84;43.67;64996.03;5134890;28;20191;-82
2023/07/25 08:26:04;;;;;;;29.42;12.60;;;;;;;28.86;44.08;64992.38;5135087;28;20226;-81
2023/07/25 08:28:31;;;;;;;18.05;11.13;;;;;;;28.98;43.98;65012.84;5125120;28;20191;-82
2023/07/25 08:31:02;;;;;;;19.02;11.25;;;;;;;29.04;43.59;65016.53;5131841;28;20535;-80
2023/07/25 08:33:31;;;;;;;18.88;11.52;;;;;;;28.91;43.60;65003.41;5132095;28;20232;-81
2023/07/25 08:36:00;;;;;;;18.92;10.23;;;;;;;28.99;42.13;65011.28;5135874;28;20243;-81
2023/07/25 08:38:27;;;;;;;15.68;10.93;;;;;;;29.13;42.16;65020.75;5134925;28;20206;-81
2023/07/25 08:41:03;;;;;;;18.13;10.98;;;;;;;29.45;42.60;65057.53;5130051;28;20231;-80
2023/07/25 08:43:32;;;;;;;14.15;9.68;;;;;;;29.54;41.95;65069.59;5119607;28;20225;-81
2023/07/25 08:46:04;;;;;;;17.55;10.48;;;;;;;29.53;43.09;65062.78;5120666;28;20211;-81
2023/07/25 08:48:32;;;;;;;16.02;10.15;;;;;;;29.58;41.03;65068.03;5117090;28;20200;-81
2023/07/25 08:51:04;;;;;;;10.73;9.10;;;;;;;29.61;39.79;65078.53;5128598;28;20248;-81
2023/07/25 08:53:32;;;;;;;12.82;9.38;;;;;;;29.70;41.16;65080.66;5128548;28;20202;-82
2023/07/25 08:56:02;;;;;;;13.40;9.55;;;;;;;29.69;39.10;65077.00;5112557;28;20227;-81
2023/07/25 08:58:30;;;;;;;13.80;8.90;;;;;;;29.75;38.64;65083.31;5129307;28;20209;-81
2023/07/25 09:00:59;;;;;;;13.85;9.48;;;;;;;29.94;38.55;65105.88;5133271;28;20227;-81
2023/07/25 09:03:26;;;;;;;14.82;9.85;;;;;;;29.85;39.64;65096.44;5123532;28;20203;-81
2023/07/25 09:05:58;;;;;;;13.52;9.90;;;;;;;29.96;39.27;65108.00;5124629;28;20245;-81
2023/07/25 09:08:27;;;;;;;16.17;10.13;;;;;;;30.22;38.38;65137.44;5124858;28;20230;-82
2023/07/25 09:10:56;;;;;;;14.93;9.43;;;;;;;30.42;39.59;65161.66;5118645;28;20211;-81
2023/07/25 09:13:24;;;;;;;21.20;10.48;;;;;;;30.52;39.15;65169.00;5124487;28;20194;-81
2023/07/25 09:15:51;;;;;;;19.13;9.75;;;;;;;30.59;38.90;65176.91;5132762;28;20222;-82
2023/07/25 09:18:19;;;;;;;14.02;9.77;;;;;;;30.83;37.61;65201.63;5132696;28;20237;-83
2023/07/25 09:20:46;;;;;;;21.10;9.00;;;;;;;30.87;37.40;65205.84;5123228;28;20215;-81
2023/07/25 09:23:21;;;;;;;18.42;9.95;;;;;;;31.00;36.76;65218.97;5126735;28;20359;-82
2023/07/25 09:25:50;;;;;;;16.02;8.95;;;;;;;31.09;36.72;65231.06;5116937;28;20191;-83
2023/07/25 09:28:17;;;;;;;13.80;8.85;;;;;;;31.23;37.04;65245.81;5131480;28;20224;-83
2023/07/25 09:30:49;;;;;;;14.05;9.45;;;;;;;31.23;37.34;65248.97;5127329;28;20213;-83
2023/07/25 09:33:28;;;;;;;17.20;9.73;;;;;;;31.15;36.82;65237.41;5127081;28;20199;-80
2023/07/25 09:35:56;;;;;;;17.92;9.55;;;;;;;31.29;37.31;65249.47;5132918;28;20274;-81
2023/07/25 09:38:23;;;;;;;15.23;9.35;;;;;;;31.58;36.97;65283.19;5130480;28;20245;-83
2023/07/25 09:40:51;;;;;;;13.90;9.52;;;;;;;31.66;37.54;65296.88;5121779;28;20227;-82
2023/07/25 09:43:23;;;;;;;13.27;8.98;;;;;;;31.97;36.97;65317.94;5114596;28;20199;-82
2023/07/25 09:45:51;;;;;;;23.55;10.43;;;;;;;32.12;35.82;65339.53;5124631;28;20203;-81
2023/07/25 09:48:19;;;;;;;14.93;9.20;;;;;;;32.15;36.65;65337.41;5111873;28;20213;-82
2023/07/25 09:50:51;;;;;;;13.40;9.18;;;;;;;31.82;36.48;65305.28;5115558;28;20204;-83
2023/07/25 09:53:19;;;;;;;15.30;8.73;;;;;;;31.88;36.46;65314.25;5134761;28;20202;-84
2023/07/25 09:55:47;;;;;;;16.13;9.55;;;;;;;31.96;37.03;65322.66;5116468;28;20191;-83
2023/07/25 09:58:15;;;;;;;13.27;8.63;;;;;;;32.07;36.37;65331.63;5112518;28;20203;-81
2023/07/25 10:00:43;;;;;;;13.38;8.77;;;;;;;32.22;37.29;65349.53;5118983;28;20226;-83
2023/07/25 10:03:11;;;;;;;16.10;8.95;;;;;;;32.15;36.81;65340.03;5131745;28;20219;-83
2023/07/25 10:05:43;;;;;;;15.75;8.40;;;;;;;32.15;35.56;65342.66;5131072;28;20202;-81
2023/07/25 10:08:12;;;;;;;15.15;8.23;;;;;;;32.05;36.32;65334.28;5134413;28;20183;-81
2023/07/25 10:10:41;;;;;;;17.55;8.25;;;;;;;32.08;36.41;65330.03;5124675;28;20187;-82
2023/07/25 10:13:09;;;;;;;10.43;7.93;;;;;;;32.24;36.29;65351.63;5134308;28;20265;-82
2023/07/25 10:15:38;;;;;;;12.38;8.32;;;;;;;32.34;36.10;65364.81;5128615;28;20201;-80
2023/07/25 10:18:22;;;;;;;15.35;8.32;;;;;;;32.48;35.88;65374.28;5131397;28;20202;-82
2023/07/25 10:20:52;;;;;;;13.95;8.18;;;;;;;32.70;35.03;65402.72;5130791;28;20362;-83
2023/07/25 10:23:29;;;;;;;13.75;8.38;;;;;;;32.72;36.12;65402.19;5130917;28;20221;-82
2023/07/25 10:25:56;;;;;;;14.32;9.02;;;;;;;32.92;34.88;65420.13;5128967;28;20549;-85
2023/07/25 10:28:24;;;;;;;18.73;9.95;;;;;;;33.17;34.04;65446.47;5116815;28;20259;-82
2023/07/25 10:30:53;;;;;;;16.10;8.95;;;;;;;33.17;34.31;65451.75;5120248;28;20219;-83
2023/07/25 10:33:20;;;;;;;19.42;8.90;;;;;;;33.47;34.94;65478.06;5132009;28;20195;-82
2023/07/25 10:35:50;;;;;;;14.18;8.85;;;;;;;33.42;35.03;65475.97;5121410;28;20203;-80
2023/07/25 10:38:23;;;;;;;17.35;8.63;;;;;;;33.65;36.67;65497.56;5132404;28;20207;-82
2023/07/25 10:40:58;;;;;;;15.52;9.13;;;;;;;33.86;36.04;65522.34;5129871;28;20586;-83
2023/07/25 10:43:30;;;;;;;16.45;9.13;;;;;;;34.14;36.63;65551.34;5112618;28;20191;-82
2023/07/25 10:46:04;;;;;;;16.42;8.50;;;;;;;34.05;34.36;65539.22;5112873;28;20227;-81
2023/07/25 10:48:35;;;;;;;16.65;8.95;;;;;;;33.96;33.24;65529.75;5118653;28;20257;-82
2023/07/25 10:51:07;;;;;;;14.93;8.38;;;;;;;33.90;33.63;65523.38;5115307;28;20223;-82
2023/07/25 10:53:36;;;;;;;22.02;10.13;;;;;;;34.09;33.93;65542.91;5117228;28;20199;-81
2023/07/25 10:56:16;;;;;;;15.27;8.48;;;;;;;34.26;33.01;65558.72;5131691;28;20558;-83
2023/07/25 10:59:10;;;;;;;11.25;8.90;;;;;;;34.54;36.00;65596.19;5119053;28;20415;-82
2023/07/25 11:01:43;;;;;;;16.80;9.00;;;;;;;34.66;33.88;65605.69;5126939;28;20230;-82
2023/07/25 11:04:28;;;;;;;17.58;9.75;;;;;;;34.54;34.60;65595.66;5116645;28;20191;-83
2023/07/25 11:06:56;;;;;;;13.18;8.43;;;;;;;34.61;33.65;65603.06;5122233;28;20280;-81
2023/07/25 11:09:27;;;;;;;18.00;8.48;;;;;;;34.56;32.67;65595.66;5113448;28;20180;-83
2023/07/25 11:11:57;;;;;;;19.00;8.98;;;;;;;34.83;31.79;65620.94;5127111;28;20315;-82
2023/07/25 11:14:24;;;;;;;16.60;7.88;;;;;;;35.05;32.50;65644.19;5127177;28;20266;-83
2023/07/25 11:16:54;;;;;;;12.55;7.65;;;;;;;35.23;32.68;65668.47;5136117;28;20226;-83
2023/07/25 11:19:28;;;;;;;12.20;7.93;;;;;;;35.48;31.78;65686.41;5134022;28;20203;-82
2023/07/25 11:22:00;;;;;;;10.90;7.95;;;;;;;35.28;31.18;65667.91;5127213;28;20234;-83
2023/07/25 11:24:28;;;;;;;11.15;8.50;;;;;;;35.16;32.18;65653.13;5121217;28;20213;-79
2023/07/25 11:26:57;;;;;;;14.65;8.50;;;;;;;35.11;32.01;65660.56;5194036;22;20210;-82
2023/07/25 11:29:24;;;;;;;16.80;8.30;;;;;;;35.22;31.45;65664.78;5114517;28;20203;-85